createdAt,value
2022-11-02T00:01:30.400Z,101122.09
2022-11-02T00:03:57.054Z,101108.78
2022-11-02T00:06:23.590Z,101120.41
2022-11-02T00:08:50.130Z,101111.56
2022-11-02T00:11:16.656Z,101113.25
2022-11-02T00:13:43.247Z,101118.75
2022-11-02T00:16:11.937Z,101112.38
2022-11-02T00:18:38.554Z,101122.38
2022-11-02T00:21:05.275Z,101125.78
2022-11-02T00:23:32.149Z,101110.56
2022-11-02T00:26:02.169Z,101112.50
2022-11-02T00:28:29.698Z,101120.56
2022-11-02T00:30:56.258Z,101130.44
2022-11-02T00:33:22.781Z,101115.22
2022-11-02T00:35:49.335Z,101130.41
2022-11-02T00:38:15.922Z,101126.81
2022-11-02T00:40:42.662Z,101124.19
2022-11-02T00:43:09.212Z,101120.50
2022-11-02T00:45:35.787Z,101112.50
2022-11-02T00:48:02.589Z,101118.03
2022-11-02T00:50:29.453Z,101100.09
2022-11-02T00:52:56.000Z,101100.91
2022-11-02T00:55:22.670Z,101096.41
2022-11-02T00:57:49.268Z,101091.97
2022-11-02T01:00:16.479Z,101080.44
2022-11-02T01:02:43.494Z,101078.63
2022-11-02T01:05:10.989Z,101077.50
2022-11-02T01:07:37.910Z,101069.59
2022-11-02T01:10:06.122Z,101066.16
2022-11-02T01:12:32.661Z,101065.25
2022-11-02T01:14:59.220Z,101066.09
2022-11-02T01:17:25.761Z,101073.25
2022-11-02T01:19:52.323Z,101084.88
2022-11-02T01:22:18.959Z,101079.50
2022-11-02T01:24:45.489Z,101076.84
2022-11-02T01:27:12.082Z,101086.75
2022-11-02T01:29:38.629Z,101073.28
2022-11-02T01:32:05.276Z,101085.78
2022-11-02T01:34:31.971Z,101084.13
2022-11-02T01:36:59.038Z,101075.19
2022-11-02T01:39:25.602Z,101075.28
2022-11-02T01:41:53.307Z,101078.75
2022-11-02T01:44:34.434Z,101089.53
2022-11-02T01:47:31.515Z,101084.94
2022-11-02T01:50:04.446Z,101082.31
2022-11-02T01:52:35.120Z,101085.88
2022-11-02T01:55:17.163Z,101086.84
2022-11-02T01:57:47.239Z,101094.97
2022-11-02T02:00:15.515Z,101082.50
2022-11-02T02:02:52.894Z,101084.22
2022-11-02T02:05:19.540Z,101057.31
2022-11-02T02:07:46.351Z,101067.09
2022-11-02T02:10:12.979Z,101052.13
2022-11-02T02:12:41.722Z,101049.25
2022-11-02T02:15:08.971Z,101043.06
2022-11-02T02:17:43.306Z,101058.28
2022-11-02T02:20:37.579Z,101040.44
2022-11-02T02:23:31.795Z,101034.13
2022-11-02T02:26:35.515Z,101046.66
2022-11-02T02:29:13.476Z,101033.34
2022-11-02T02:32:05.907Z,101039.50
2022-11-02T02:34:51.931Z,101034.19
2022-11-02T02:37:24.251Z,101048.59
2022-11-02T02:39:59.966Z,101036.06
2022-11-02T02:42:41.050Z,101046.69
2022-11-02T02:45:24.312Z,101046.66
2022-11-02T02:48:20.150Z,101034.19
2022-11-02T02:50:50.560Z,101032.47
2022-11-02T02:53:20.616Z,101037.09
2022-11-02T02:55:48.469Z,101037.84
2022-11-02T02:58:24.762Z,101028.06
2022-11-02T03:00:53.062Z,101043.25
2022-11-02T03:03:22.091Z,101034.50
2022-11-02T03:06:10.691Z,101035.19
2022-11-02T03:08:38.975Z,101029.88
2022-11-02T03:11:19.735Z,101033.44
2022-11-02T03:14:10.189Z,101031.56
2022-11-02T03:16:44.510Z,101027.28
2022-11-02T03:19:24.172Z,101025.47
2022-11-02T03:21:58.503Z,101029.00
2022-11-02T03:24:47.702Z,101034.50
2022-11-02T03:27:38.741Z,101027.22
2022-11-02T03:30:06.046Z,101015.72
2022-11-02T03:32:42.546Z,101018.28
2022-11-02T03:35:17.347Z,101012.94
2022-11-02T03:37:53.041Z,101013.84
2022-11-02T03:40:44.183Z,101016.66
2022-11-02T03:43:11.144Z,101014.84
2022-11-02T03:45:50.033Z,101016.63
2022-11-02T03:48:17.463Z,101026.53
2022-11-02T03:50:50.296Z,101030.97
2022-11-02T03:53:23.224Z,101030.22
2022-11-02T03:55:53.767Z,101032.72
2022-11-02T03:58:20.346Z,101034.53
2022-11-02T04:00:56.408Z,101055.22
2022-11-02T04:03:23.939Z,101050.63
2022-11-02T04:05:50.534Z,101054.22
2022-11-02T04:08:22.184Z,101058.72
2022-11-02T04:11:08.294Z,101059.66
2022-11-02T04:13:53.682Z,101065.06
2022-11-02T04:16:25.035Z,101075.78
2022-11-02T04:19:13.699Z,101081.19
2022-11-02T04:21:40.614Z,101077.63
2022-11-02T04:24:27.436Z,101086.63
2022-11-02T04:26:54.036Z,101089.28
2022-11-02T04:29:20.629Z,101092.00
2022-11-02T04:31:47.190Z,101097.34
2022-11-02T04:34:13.731Z,101096.34
2022-11-02T04:36:41.106Z,101104.34
2022-11-02T04:39:07.631Z,101097.41
2022-11-02T04:41:43.097Z,101090.31
2022-11-02T04:44:11.320Z,101099.44
2022-11-02T04:46:38.931Z,101097.34
2022-11-02T04:49:05.908Z,101107.31
2022-11-02T04:51:32.876Z,101099.25
2022-11-02T04:53:59.664Z,101092.13
2022-11-02T04:56:27.269Z,101093.78
2022-11-02T04:58:56.542Z,101095.56
2022-11-02T05:01:25.300Z,101100.94
2022-11-02T05:03:53.226Z,101095.72
2022-11-02T05:06:21.235Z,101104.50
2022-11-02T05:08:47.770Z,101106.25
2022-11-02T05:11:14.665Z,101096.44
2022-11-02T05:13:41.805Z,101099.31
2022-11-02T05:16:12.090Z,101105.56
2022-11-02T05:18:38.648Z,101111.69
2022-11-02T05:21:05.461Z,101106.31
2022-11-02T05:23:32.041Z,101115.28
2022-11-02T05:26:00.739Z,101118.06
2022-11-02T05:28:28.202Z,101111.81
2022-11-02T05:30:55.195Z,101125.19
2022-11-02T05:33:25.520Z,101114.38
2022-11-02T05:35:57.357Z,101111.81
2022-11-02T05:38:24.641Z,101115.56
2022-11-02T05:40:52.648Z,101122.72
2022-11-02T05:43:19.177Z,101115.28
2022-11-02T05:45:51.684Z,101128.75
2022-11-02T05:48:18.195Z,101134.22
2022-11-02T05:50:44.715Z,101145.75
2022-11-02T05:53:11.251Z,101145.88
2022-11-02T05:55:37.805Z,101134.97
2022-11-02T05:58:04.329Z,101136.06
2022-11-02T06:00:30.875Z,101141.38
2022-11-02T06:02:58.182Z,101147.75
2022-11-02T06:05:26.048Z,101146.69
2022-11-02T06:07:52.689Z,101147.75
2022-11-02T06:10:19.267Z,101154.84
2022-11-02T06:12:46.087Z,101156.59
2022-11-02T06:15:12.663Z,101148.63
2022-11-02T06:17:40.030Z,101161.31
2022-11-02T06:20:07.617Z,101161.84
2022-11-02T06:22:43.768Z,101171.00
2022-11-02T06:25:10.497Z,101178.19
2022-11-02T06:27:39.887Z,101183.56
2022-11-02T06:30:09.355Z,101182.69
2022-11-02T06:32:35.927Z,101189.03
2022-11-02T06:35:02.536Z,101187.28
2022-11-02T06:37:33.550Z,101183.63
2022-11-02T06:40:00.819Z,101194.38
2022-11-02T06:42:27.374Z,101205.13
2022-11-02T06:44:53.999Z,101209.50
2022-11-02T06:47:20.533Z,101224.84
2022-11-02T06:49:47.159Z,101223.91
2022-11-02T06:52:13.717Z,101230.19
2022-11-02T06:54:40.259Z,101245.38
2022-11-02T06:57:06.919Z,101249.88
2022-11-02T06:59:33.665Z,101256.19
2022-11-02T07:02:00.358Z,101257.03
2022-11-02T07:04:27.117Z,101268.69
2022-11-02T07:06:53.691Z,101270.41
2022-11-02T07:09:20.210Z,101278.59
2022-11-02T07:11:46.744Z,101276.69
2022-11-02T07:14:13.299Z,101277.56
2022-11-02T07:16:39.841Z,101287.44
2022-11-02T07:19:06.359Z,101289.25
2022-11-02T07:21:33.017Z,101299.00
2022-11-02T07:23:59.612Z,101308.81
2022-11-02T07:26:26.987Z,101314.09
2022-11-02T07:28:56.809Z,101314.13
2022-11-02T07:31:25.851Z,101310.59
2022-11-02T07:33:52.402Z,101314.97
2022-11-02T07:36:18.943Z,101330.97
2022-11-02T07:38:45.648Z,101339.03
2022-11-02T07:41:12.212Z,101335.53
2022-11-02T07:43:41.456Z,101338.09
2022-11-02T07:46:11.599Z,101342.53
2022-11-02T07:48:38.205Z,101352.44
2022-11-02T07:51:05.770Z,101359.59
2022-11-02T07:53:32.341Z,101365.72
2022-11-02T07:56:00.603Z,101376.41
2022-11-02T07:58:27.182Z,101380.09
2022-11-02T08:00:58.736Z,101390.81
2022-11-02T08:03:27.184Z,101383.59
2022-11-02T08:05:54.092Z,101397.78
2022-11-02T08:08:24.482Z,101405.81
2022-11-02T08:10:52.592Z,101417.41
2022-11-02T08:13:21.217Z,101422.03
2022-11-02T08:15:51.766Z,101430.06
2022-11-02T08:18:20.565Z,101425.44
2022-11-02T08:20:47.890Z,101418.22
2022-11-02T08:23:15.856Z,101421.13
2022-11-02T08:25:42.827Z,101429.00
2022-11-02T08:28:13.250Z,101427.22
2022-11-02T08:30:39.914Z,101434.56
2022-11-02T08:33:08.158Z,101414.75
2022-11-02T08:35:36.372Z,101430.06
2022-11-02T08:38:04.322Z,101437.13
2022-11-02T08:40:31.350Z,101447.03
2022-11-02T08:42:58.882Z,101447.13
2022-11-02T08:45:26.691Z,101450.59
2022-11-02T08:47:53.661Z,101452.34
2022-11-02T08:50:20.704Z,101463.13
2022-11-02T08:52:47.246Z,101461.41
2022-11-02T08:55:13.895Z,101473.97
2022-11-02T08:57:50.473Z,101480.09
2022-11-02T09:00:18.775Z,101489.06
2022-11-02T09:02:57.452Z,101492.66
2022-11-02T09:05:24.011Z,101488.16
2022-11-02T09:07:58.246Z,101496.25
2022-11-02T09:10:24.892Z,101510.56
2022-11-02T09:12:51.433Z,101516.00
2022-11-02T09:15:18.545Z,101519.47
2022-11-02T09:17:49.266Z,101524.69
2022-11-02T09:20:17.151Z,101521.94
2022-11-02T09:22:44.469Z,101526.38
2022-11-02T09:25:11.618Z,101530.81
2022-11-02T09:27:38.453Z,101545.09
2022-11-02T09:30:05.620Z,101535.19
2022-11-02T09:32:33.667Z,101546.16
2022-11-02T09:35:01.418Z,101558.53
2022-11-02T09:37:28.479Z,101565.72
2022-11-02T09:39:58.195Z,101565.56
2022-11-02T09:42:59.185Z,101571.84
2022-11-02T09:45:29.163Z,101581.72
2022-11-02T09:48:17.094Z,101576.44
2022-11-02T09:51:15.973Z,101591.53
2022-11-02T09:54:01.355Z,101588.03
2022-11-02T09:56:28.129Z,101606.72
2022-11-02T09:59:04.915Z,101608.50
2022-11-02T10:01:45.779Z,101608.53
2022-11-02T10:04:39.970Z,101620.13
2022-11-02T10:07:13.677Z,101629.13
2022-11-02T10:09:55.012Z,101625.66
2022-11-02T10:12:34.805Z,101624.84
2022-11-02T10:15:14.822Z,101621.22
2022-11-02T10:17:41.543Z,101621.19
2022-11-02T10:20:34.727Z,101638.91
2022-11-02T10:23:06.317Z,101635.38
2022-11-02T10:25:33.716Z,101634.50
2022-11-02T10:28:05.389Z,101641.66
2022-11-02T10:30:32.344Z,101642.63
2022-11-02T10:32:59.335Z,101651.44
2022-11-02T10:36:19.657Z,101653.22
2022-11-02T10:39:07.388Z,101658.63
2022-11-02T10:41:55.071Z,101657.66
2022-11-02T10:44:27.478Z,101673.78
2022-11-02T10:47:16.046Z,101672.88
2022-11-02T10:49:45.606Z,101667.50
2022-11-02T10:52:14.628Z,101676.44
2022-11-02T10:54:41.207Z,101678.25
2022-11-02T10:57:15.255Z,101675.47
2022-11-02T10:59:41.827Z,101688.91
2022-11-02T11:02:15.094Z,101690.78
2022-11-02T11:04:42.400Z,101703.31
2022-11-02T11:07:25.200Z,101694.28
2022-11-02T11:09:55.084Z,101696.19
2022-11-02T11:12:34.109Z,101704.19
2022-11-02T11:20:37.746Z,101698.84
2022-11-02T11:23:24.947Z,101707.63
2022-11-02T11:26:01.829Z,101712.13
2022-11-02T11:28:31.613Z,101721.16
2022-11-02T11:31:15.983Z,101717.50
2022-11-02T11:33:50.810Z,101714.81
2022-11-02T11:38:54.083Z,101726.50
2022-11-02T11:41:20.808Z,101713.88
2022-11-02T11:43:47.618Z,101724.63
2022-11-02T11:46:15.288Z,101733.59
2022-11-02T11:48:41.786Z,101731.78
2022-11-02T11:51:37.886Z,101720.88
2022-11-02T11:54:28.886Z,101730.81
2022-11-02T11:56:57.566Z,101722.81
2022-11-02T11:59:42.471Z,101729.84
2022-11-02T12:02:30.897Z,101732.59
2022-11-02T12:05:18.619Z,101731.47
2022-11-02T12:07:56.190Z,101727.91
2022-11-02T12:10:43.063Z,101727.88
2022-11-02T12:13:18.760Z,101725.91
2022-11-02T12:15:51.261Z,101732.19
2022-11-02T12:18:39.294Z,101731.06
2022-11-02T12:21:27.370Z,101730.28
2022-11-02T12:24:00.510Z,101723.13
2022-11-02T12:26:46.803Z,101719.38
2022-11-02T12:29:25.306Z,101724.63
2022-11-02T12:32:06.758Z,101731.75
2022-11-02T12:35:27.844Z,101740.75
2022-11-02T12:38:38.622Z,101734.53
2022-11-02T12:41:08.384Z,101741.06
2022-11-02T12:43:44.905Z,101736.59
2022-11-02T12:46:38.372Z,101727.66
2022-11-02T12:49:35.671Z,101733.13
2022-11-02T12:52:33.714Z,101734.91
2022-11-02T12:55:02.855Z,101727.78
2022-11-02T12:57:35.426Z,101726.88
2022-11-02T13:00:07.483Z,101732.25
2022-11-02T13:02:58.287Z,101735.00
2022-11-02T13:05:37.941Z,101728.75
2022-11-02T13:08:13.493Z,101736.94
2022-11-02T13:10:52.241Z,101733.25
2022-11-02T13:13:45.391Z,101732.38
2022-11-02T13:16:14.846Z,101726.16
2022-11-02T13:18:46.955Z,101723.47
2022-11-02T13:21:16.846Z,101729.78
2022-11-02T13:23:45.519Z,101730.59
2022-11-02T13:26:20.412Z,101725.28
2022-11-02T13:28:54.062Z,101735.06
2022-11-02T13:31:34.638Z,101727.06
2022-11-02T13:34:04.690Z,101727.06
2022-11-02T13:36:31.253Z,101734.22
2022-11-02T13:39:08.848Z,101733.28
2022-11-02T13:41:35.295Z,101728.00
2022-11-02T13:44:39.292Z,101732.34
2022-11-02T13:47:32.352Z,101726.00
2022-11-02T13:49:59.241Z,101733.09
2022-11-02T13:52:37.791Z,101734.91
2022-11-02T13:55:05.343Z,101731.25
2022-11-02T13:57:41.406Z,101730.34
2022-11-02T14:00:23.217Z,101736.53
2022-11-02T14:02:56.124Z,101720.47
2022-11-02T14:05:30.610Z,101727.56
2022-11-02T14:08:02.016Z,101724.75
2022-11-02T14:10:30.016Z,101731.88
2022-11-02T14:12:56.594Z,101725.66
2022-11-02T14:15:23.047Z,101722.97
2022-11-02T14:17:55.386Z,101729.16
2022-11-02T14:20:34.140Z,101725.59
2022-11-02T14:23:09.766Z,101734.53
2022-11-02T14:25:45.230Z,101720.28
2022-11-02T14:28:26.531Z,101728.28
2022-11-02T14:30:59.056Z,101731.91
2022-11-02T14:33:59.501Z,101730.06
2022-11-02T14:36:41.215Z,101725.59
2022-11-02T14:39:31.888Z,101722.06
2022-11-02T14:42:13.323Z,101720.28
2022-11-02T14:45:02.504Z,101721.22
2022-11-02T14:47:31.646Z,101725.75
2022-11-02T14:50:04.373Z,101731.06
2022-11-02T14:52:33.214Z,101729.50
2022-11-02T14:55:17.947Z,101734.72
2022-11-02T14:57:52.263Z,101722.16
2022-11-02T15:00:35.379Z,101724.03
2022-11-02T15:03:04.224Z,101723.16
2022-11-02T15:05:34.753Z,101724.03
2022-11-02T15:08:24.113Z,101733.03
2022-11-02T15:10:50.685Z,101725.94
2022-11-02T15:13:20.138Z,101728.72
2022-11-02T15:16:12.561Z,101722.44
2022-11-02T15:18:40.586Z,101720.53
2022-11-02T15:21:12.936Z,101702.59
2022-11-02T15:24:19.116Z,101713.41
2022-11-02T15:26:45.962Z,101712.44
2022-11-02T15:29:21.922Z,101706.31
2022-11-02T15:31:57.454Z,101716.25
2022-11-02T15:34:33.486Z,101713.50
2022-11-02T15:37:00.474Z,101709.97
2022-11-02T15:39:27.490Z,101706.47
2022-11-02T15:42:15.443Z,101704.66
2022-11-02T15:44:51.775Z,101703.72
2022-11-02T15:47:18.244Z,101706.53
2022-11-02T15:50:08.232Z,101704.69
2022-11-02T15:53:21.802Z,101710.94
2022-11-02T15:56:09.841Z,101710.06
2022-11-02T15:58:59.128Z,101710.94
2022-11-02T16:01:29.880Z,101699.31
2022-11-02T16:04:00.784Z,101709.16
2022-11-02T16:06:30.095Z,101710.03
2022-11-02T16:09:01.401Z,101703.78
2022-11-02T16:11:28.859Z,101702.78
2022-11-02T16:14:15.846Z,101708.25
2022-11-02T16:16:49.905Z,101711.78
2022-11-02T16:19:21.338Z,101709.94
2022-11-02T16:21:49.169Z,101697.50
2022-11-02T16:24:15.823Z,101696.59
2022-11-02T16:26:44.051Z,101694.88
2022-11-02T16:29:10.842Z,101697.59
2022-11-02T16:31:37.990Z,101699.31
2022-11-02T16:34:24.359Z,101699.31
2022-11-02T16:36:51.027Z,101697.56
2022-11-02T16:39:28.956Z,101697.50
2022-11-02T16:41:57.451Z,101694.00
2022-11-02T16:44:27.927Z,101694.00
2022-11-02T16:46:57.530Z,101693.00
2022-11-02T16:49:25.777Z,101686.81
2022-11-02T16:51:53.230Z,101693.13
2022-11-02T16:54:49.042Z,101691.31
2022-11-02T16:57:19.461Z,101697.50
2022-11-02T16:59:50.301Z,101698.50
2022-11-02T17:02:17.177Z,101690.41
2022-11-02T17:04:45.730Z,101691.34
2022-11-02T17:07:17.315Z,101694.91
2022-11-02T17:09:43.966Z,101691.25
2022-11-02T17:12:14.534Z,101690.34
2022-11-02T17:14:46.509Z,101687.78
2022-11-02T17:17:25.114Z,101686.84
2022-11-02T17:20:15.296Z,101699.44
2022-11-02T17:23:17.362Z,101695.84
2022-11-02T17:25:44.040Z,101683.34
2022-11-02T17:28:35.398Z,101685.16
2022-11-02T17:31:02.046Z,101683.41
2022-11-02T17:33:30.762Z,101677.94
2022-11-02T17:36:04.602Z,101674.38
2022-11-02T17:38:31.199Z,101669.00
2022-11-02T17:40:59.581Z,101661.91
2022-11-02T17:43:26.471Z,101663.63
2022-11-02T17:46:00.198Z,101652.94
2022-11-02T17:48:29.044Z,101659.19
2022-11-02T17:50:56.787Z,101662.84
2022-11-02T17:53:24.283Z,101661.88
2022-11-02T17:55:50.941Z,101656.56
2022-11-02T17:58:17.540Z,101659.22
2022-11-02T18:00:44.193Z,101656.56
2022-11-02T18:03:16.879Z,101652.97
2022-11-02T18:05:46.621Z,101637.72
2022-11-02T18:08:16.560Z,101650.31
2022-11-02T18:10:45.196Z,101637.72
2022-11-02T18:13:12.963Z,101636.94
2022-11-02T18:15:39.892Z,101636.81
2022-11-02T18:18:06.756Z,101640.50
2022-11-02T18:20:38.656Z,101627.91
2022-11-02T18:23:08.336Z,101633.25
2022-11-02T18:25:35.139Z,101627.00
2022-11-02T18:28:02.288Z,101622.50
2022-11-02T18:30:29.784Z,101629.69
2022-11-02T18:32:57.126Z,101618.03
2022-11-02T18:35:24.590Z,101611.81
2022-11-02T18:37:51.478Z,101614.53
2022-11-02T18:40:19.539Z,101605.50
2022-11-02T18:42:47.130Z,101599.25
2022-11-02T18:45:14.993Z,101602.78
2022-11-02T18:47:42.039Z,101593.91
2022-11-02T18:50:11.450Z,101587.66
2022-11-02T18:52:38.033Z,101584.09
2022-11-02T18:55:05.354Z,101579.59
2022-11-02T18:57:32.640Z,101585.00
2022-11-02T18:59:59.813Z,101574.22
2022-11-02T19:02:27.113Z,101575.22
2022-11-02T19:04:53.676Z,101567.09
2022-11-02T19:07:38.542Z,101574.22
2022-11-02T19:10:05.572Z,101566.19
2022-11-02T19:12:32.232Z,101558.97
2022-11-02T19:14:59.083Z,101558.06
2022-11-02T19:17:26.792Z,101552.69
2022-11-02T19:19:53.375Z,101547.31
2022-11-02T19:22:25.477Z,101542.06
2022-11-02T19:24:52.364Z,101542.00
2022-11-02T19:27:23.446Z,101538.34
2022-11-02T19:29:50.271Z,101529.56
2022-11-02T19:32:17.479Z,101536.69
2022-11-02T19:34:44.111Z,101540.41
2022-11-02T19:37:11.550Z,101529.63
2022-11-02T19:39:38.071Z,101522.34
2022-11-02T19:42:07.161Z,101528.72
2022-11-02T19:44:38.208Z,101512.44
2022-11-02T19:47:08.738Z,101507.16
2022-11-02T19:49:35.291Z,101503.53
2022-11-02T19:52:01.835Z,101500.91
2022-11-02T19:54:28.386Z,101493.78
2022-11-02T19:56:54.906Z,101478.53
2022-11-02T19:59:22.541Z,101483.97
2022-11-02T20:01:50.554Z,101482.13
2022-11-02T20:04:17.340Z,101482.13
2022-11-02T20:06:44.248Z,101475.94
2022-11-02T20:09:16.128Z,101477.75
2022-11-02T20:11:44.829Z,101485.66
2022-11-02T20:14:12.636Z,101480.34
2022-11-02T20:16:39.429Z,101486.69
2022-11-02T20:19:06.667Z,101486.66
2022-11-02T20:21:36.863Z,101483.00
2022-11-02T20:24:08.206Z,101478.59
2022-11-02T20:26:36.060Z,101468.75
2022-11-02T20:29:04.460Z,101466.78
2022-11-02T20:31:36.743Z,101458.81
2022-11-02T20:34:05.271Z,101456.22
2022-11-02T20:36:32.149Z,101457.13
2022-11-02T20:38:58.740Z,101452.53
2022-11-02T20:41:26.132Z,101452.66
2022-11-02T20:43:55.177Z,101444.41
2022-11-02T20:46:41.488Z,101437.34
2022-11-02T20:49:21.054Z,101441.88
2022-11-02T20:51:55.586Z,101438.41
2022-11-02T20:54:22.411Z,101436.50
2022-11-02T20:56:49.757Z,101429.38
2022-11-02T20:59:16.514Z,101435.59
2022-11-02T21:01:43.459Z,101432.97
2022-11-02T21:04:13.848Z,101426.63
2022-11-02T21:06:44.972Z,101428.47
2022-11-02T21:09:12.263Z,101428.53
2022-11-02T21:11:57.886Z,101422.25
2022-11-02T21:14:24.582Z,101411.53
2022-11-02T21:16:51.182Z,101410.69
2022-11-02T21:19:19.855Z,101407.94
2022-11-02T21:21:46.389Z,101422.25
2022-11-02T21:24:12.948Z,101411.47
2022-11-02T21:26:39.509Z,101422.31
2022-11-02T21:29:06.145Z,101411.56
2022-11-02T21:31:34.060Z,101403.53
2022-11-02T21:34:00.621Z,101409.66
2022-11-02T21:36:27.188Z,101402.50
2022-11-02T21:38:53.883Z,101402.63
2022-11-02T21:41:22.170Z,101399.00
2022-11-02T21:43:52.011Z,101398.94
2022-11-02T21:46:22.328Z,101385.88
2022-11-02T21:48:48.911Z,101393.88
2022-11-02T21:51:17.653Z,101384.72
2022-11-02T21:53:45.074Z,101391.91
2022-11-02T21:56:13.611Z,101383.91
2022-11-02T21:58:44.748Z,101387.56
2022-11-02T22:01:34.423Z,101383.06
2022-11-02T22:04:01.432Z,101388.50
2022-11-02T22:06:31.211Z,101388.44
2022-11-02T22:08:59.198Z,101377.63
2022-11-02T22:11:28.881Z,101372.31
2022-11-02T22:13:59.431Z,101377.69
2022-11-02T22:16:28.133Z,101373.22
2022-11-02T22:18:59.420Z,101368.78
2022-11-02T22:21:31.414Z,101374.13
2022-11-02T22:23:58.275Z,101366.94
2022-11-02T22:26:27.157Z,101357.25
2022-11-02T22:28:54.244Z,101357.16
2022-11-02T22:31:23.535Z,101344.63
2022-11-02T22:33:52.165Z,101332.97
2022-11-02T22:36:20.693Z,101331.31
2022-11-02T22:38:56.218Z,101320.53
2022-11-02T22:41:30.989Z,101322.19
2022-11-02T22:44:02.208Z,101321.41
2022-11-02T22:46:30.247Z,101307.31
2022-11-02T22:48:58.419Z,101311.63
2022-11-02T22:51:27.103Z,101315.09
2022-11-02T22:53:54.385Z,101310.03
2022-11-02T22:56:22.518Z,101299.97
2022-11-02T22:58:49.603Z,101291.97
2022-11-02T23:01:21.515Z,101291.94
2022-11-02T23:03:49.002Z,101287.50
2022-11-02T23:06:16.778Z,101286.56
2022-11-02T23:08:47.123Z,101283.09
2022-11-02T23:11:21.896Z,101281.28
2022-11-02T23:13:53.890Z,101275.97
2022-11-02T23:16:22.514Z,101266.94
2022-11-02T23:19:25.318Z,101279.50
2022-11-02T23:22:15.980Z,101267.00
2022-11-02T23:25:08.677Z,101267.06
2022-11-02T23:27:59.663Z,101259.00
2022-11-02T23:30:46.663Z,101258.09
2022-11-02T23:33:13.371Z,101263.47
2022-11-02T23:35:58.410Z,101251.03
2022-11-02T23:38:24.926Z,101259.91
2022-11-02T23:40:54.960Z,101242.94
2022-11-02T23:43:21.528Z,101243.09
2022-11-02T23:45:48.055Z,101239.31
2022-11-02T23:51:04.546Z,101225.13
2022-11-02T23:53:49.639Z,101223.28
2022-11-02T23:56:34.977Z,101225.09
2022-11-02T23:59:07.417Z,101224.19
